Time;durP1;ratioP1;P1;durP2;ratioP2;P2;SDS_P1;SDS_P2;PMS_P1;PMS_P2;Temp;Humidity;BMP_temperature;BMP_pressure;BME280_temperature;BME280_humidity;BME280_pressure;Samples;Min_cycle;Max_cycle;Signal;HPM_P1;HPM_P2
2021/11/14 00:01:14;;;;;;;14.38;12.02;;;;;;;;;;5089234;28;20519;-72
2021/11/14 00:03:40;;;;;;;15.43;11.98;;;;;;;;;;5083937;28;20031;-71
2021/11/14 00:06:05;;;;;;;15.57;12.45;;;;;;;;;;5109308;28;20236;-70
2021/11/14 00:08:31;;;;;;;15.55;13.10;;;;;;;;;;5078271;28;20027;-70
2021/11/14 00:11:00;;;;;;;16.33;13.75;;;;;;;;;;5085330;28;20535;-71
2021/11/14 00:13:26;;;;;;;14.82;12.57;;;;;;;;;;5089891;28;20024;-70
2021/11/14 00:15:51;;;;;;;16.80;12.95;;;;;;;;;;5090743;28;20024;-71
2021/11/14 00:18:17;;;;;;;16.00;13.63;;;;;;;;;;5091707;28;20027;-71
2021/11/14 00:20:43;;;;;;;15.35;13.05;;;;;;;;;;5091303;28;20016;-71
2021/11/14 00:23:09;;;;;;;16.98;13.85;;;;;;;;;;5079613;28;20028;-71
2021/11/14 00:25:34;;;;;;;18.88;13.98;;;;;;;;;;5087587;28;20057;-71
2021/11/14 00:27:59;;;;;;;19.73;15.20;;;;;;;;;;5094039;28;20044;-71
2021/11/14 00:30:25;;;;;;;22.63;14.93;;;;;;;;;;5094501;28;20085;-70
2021/11/14 00:32:52;;;;;;;17.48;14.32;;;;;;;;;;5095152;28;20015;-71
2021/11/14 00:35:17;;;;;;;21.85;16.20;;;;;;;;;;5092121;28;20020;-70
2021/11/14 00:37:43;;;;;;;20.40;16.35;;;;;;;;;;5092936;28;20019;-71
2021/11/14 00:40:10;;;;;;;21.05;16.85;;;;;;;;;;5093886;28;20107;-71
2021/11/14 00:42:35;;;;;;;19.33;15.15;;;;;;;;;;5082290;28;20028;-70
2021/11/14 00:45:01;;;;;;;19.77;15.73;;;;;;;;;;5092558;28;20069;-71
2021/11/14 00:47:26;;;;;;;21.23;15.02;;;;;;;;;;5093229;28;20503;-71
2021/11/14 00:49:51;;;;;;;17.08;13.05;;;;;;;;;;5094960;28;20051;-70
2021/11/14 00:52:16;;;;;;;17.92;13.52;;;;;;;;;;5067129;28;20062;-71
2021/11/14 00:54:42;;;;;;;14.07;12.10;;;;;;;;;;5090548;28;20097;-71
2021/11/14 00:57:07;;;;;;;15.18;12.90;;;;;;;;;;5082974;28;20032;-70
2021/11/14 00:59:32;;;;;;;15.15;12.30;;;;;;;;;;5079339;28;20036;-70
2021/11/14 01:01:57;;;;;;;14.45;11.90;;;;;;;;;;5089363;28;20012;-70
2021/11/14 01:04:23;;;;;;;15.30;12.05;;;;;;;;;;5093773;28;20157;-71
2021/11/14 01:06:48;;;;;;;16.27;12.52;;;;;;;;;;5091881;28;20388;-71
2021/11/14 01:09:13;;;;;;;16.25;12.75;;;;;;;;;;5093148;28;20027;-71
2021/11/14 01:11:38;;;;;;;17.00;13.15;;;;;;;;;;5094574;28;20020;-71
2021/11/14 01:14:04;;;;;;;14.68;12.30;;;;;;;;;;5092422;28;20028;-72
2021/11/14 01:16:29;;;;;;;15.07;11.75;;;;;;;;;;5086377;28;20048;-71
2021/11/14 01:18:54;;;;;;;13.35;11.05;;;;;;;;;;5080212;28;20066;-71
2021/11/14 01:21:19;;;;;;;14.88;11.95;;;;;;;;;;5091775;28;20020;-71
2021/11/14 01:23:46;;;;;;;16.08;12.52;;;;;;;;;;5082692;28;20470;-70
2021/11/14 01:26:11;;;;;;;16.02;11.95;;;;;;;;;;5090070;28;20028;-70
2021/11/14 01:28:37;;;;;;;14.35;11.10;;;;;;;;;;5089619;28;20059;-70
2021/11/14 01:31:02;;;;;;;14.50;11.75;;;;;;;;;;5085104;28;20087;-70
2021/11/14 01:33:28;;;;;;;15.43;11.63;;;;;;;;;;5089818;28;20468;-71
2021/11/14 01:35:55;;;;;;;17.52;12.73;;;;;;;;;;5086999;28;20016;-71
2021/11/14 01:38:20;;;;;;;15.45;12.10;;;;;;;;;;5085471;28;20027;-71
2021/11/14 01:40:48;;;;;;;16.63;12.18;;;;;;;;;;5093430;28;20028;-71
2021/11/14 01:43:14;;;;;;;16.30;12.40;;;;;;;;;;5093974;28;20533;-71
2021/11/14 01:45:41;;;;;;;15.45;12.77;;;;;;;;;;5092268;28;20169;-71
2021/11/14 01:48:06;;;;;;;14.07;11.45;;;;;;;;;;5080137;28;20020;-71
2021/11/14 01:50:32;;;;;;;15.35;12.40;;;;;;;;;;5087497;28;20448;-71
2021/11/14 01:52:57;;;;;;;17.08;12.93;;;;;;;;;;5077793;28;20107;-71
2021/11/14 01:55:23;;;;;;;16.48;12.95;;;;;;;;;;5084924;28;20031;-69
2021/11/14 01:57:49;;;;;;;13.25;11.52;;;;;;;;;;5092889;28;20024;-70
2021/11/14 02:00:19;;;;;;;14.50;12.55;;;;;;;;;;5091033;28;20047;-70
2021/11/14 02:02:44;;;;;;;13.57;11.15;;;;;;;;;;5076189;28;20020;-70
2021/11/14 02:05:10;;;;;;;14.43;11.57;;;;;;;;;;5091305;28;20115;-70
2021/11/14 02:07:36;;;;;;;15.60;11.70;;;;;;;;;;5089659;28;20060;-70
2021/11/14 02:10:02;;;;;;;14.70;11.13;;;;;;;;;;5092509;28;20036;-70
2021/11/14 02:12:27;;;;;;;15.88;12.25;;;;;;;;;;5079111;28;20521;-70
2021/11/14 02:14:52;;;;;;;15.88;12.50;;;;;;;;;;5071765;28;20121;-70
2021/11/14 02:17:18;;;;;;;15.30;12.02;;;;;;;;;;5091107;28;20379;-70
2021/11/14 02:19:47;;;;;;;14.20;11.57;;;;;;;;;;5085024;28;20017;-70
2021/11/14 02:22:12;;;;;;;15.23;11.85;;;;;;;;;;5076848;28;20035;-70
2021/11/14 02:24:38;;;;;;;13.35;11.70;;;;;;;;;;5090785;28;20019;-70
2021/11/14 02:27:04;;;;;;;15.85;11.95;;;;;;;;;;5088030;28;20385;-70
2021/11/14 02:29:29;;;;;;;16.02;11.55;;;;;;;;;;5089421;28;20077;-71
2021/11/14 02:31:54;;;;;;;15.80;12.20;;;;;;;;;;5080762;28;20016;-70
2021/11/14 02:34:21;;;;;;;15.40;11.90;;;;;;;;;;5092476;28;20028;-70
2021/11/14 02:36:46;;;;;;;17.30;12.45;;;;;;;;;;5093036;28;20024;-71
2021/11/14 02:39:11;;;;;;;16.35;12.43;;;;;;;;;;5086493;28;20021;-71
2021/11/14 02:41:37;;;;;;;17.63;12.40;;;;;;;;;;5089907;28;20047;-71
2021/11/14 02:44:02;;;;;;;17.52;12.80;;;;;;;;;;5084594;28;20535;-71
2021/11/14 02:46:27;;;;;;;16.75;13.07;;;;;;;;;;5092140;28;20073;-71
2021/11/14 02:48:53;;;;;;;19.15;13.60;;;;;;;;;;5091469;28;20020;-71
2021/11/14 02:51:20;;;;;;;16.80;13.98;;;;;;;;;;5089412;28;20020;-71
2021/11/14 02:53:45;;;;;;;17.83;14.57;;;;;;;;;;5082834;28;20020;-72
2021/11/14 02:56:12;;;;;;;19.55;14.50;;;;;;;;;;5090048;28;20027;-71
2021/11/14 02:58:38;;;;;;;17.88;13.65;;;;;;;;;;5085614;28;20554;-70
2021/11/14 03:01:11;;;;;;;15.73;13.30;;;;;;;;;;5091244;28;20024;-70
2021/11/14 03:03:37;;;;;;;16.85;13.55;;;;;;;;;;5072116;28;20353;-70
2021/11/14 03:06:03;;;;;;;15.38;12.45;;;;;;;;;;5085141;28;20060;-70
2021/11/14 03:08:29;;;;;;;19.10;14.13;;;;;;;;;;5082593;28;20543;-70
2021/11/14 03:10:54;;;;;;;17.30;12.70;;;;;;;;;;5089142;28;20020;-70
2021/11/14 03:13:20;;;;;;;18.33;15.07;;;;;;;;;;5091118;28;20032;-71
2021/11/14 03:15:47;;;;;;;20.83;14.45;;;;;;;;;;5091824;28;20620;-70
2021/11/14 03:18:13;;;;;;;15.65;13.27;;;;;;;;;;5085993;28;20024;-71
2021/11/14 03:20:39;;;;;;;16.70;13.18;;;;;;;;;;5088236;28;20020;-71
2021/11/14 03:23:04;;;;;;;17.95;14.70;;;;;;;;;;5080020;28;20020;-71
2021/11/14 03:25:31;;;;;;;18.20;13.93;;;;;;;;;;5091428;28;20103;-70
2021/11/14 03:27:56;;;;;;;17.83;13.82;;;;;;;;;;5091344;28;20056;-71
2021/11/14 03:30:23;;;;;;;16.65;13.45;;;;;;;;;;5086584;28;20366;-70
2021/11/14 03:32:49;;;;;;;17.13;12.75;;;;;;;;;;5087625;28;20396;-70
2021/11/14 03:35:15;;;;;;;17.23;12.80;;;;;;;;;;5088486;28;20028;-70
2021/11/14 03:37:40;;;;;;;15.90;12.75;;;;;;;;;;5074453;28;20495;-71
2021/11/14 03:40:07;;;;;;;17.65;13.20;;;;;;;;;;5088026;28;20028;-71
2021/11/14 03:42:33;;;;;;;16.75;12.98;;;;;;;;;;5091772;28;20522;-72
2021/11/14 03:44:58;;;;;;;18.85;12.90;;;;;;;;;;5090934;28;20110;-71
2021/11/14 03:47:23;;;;;;;17.67;13.15;;;;;;;;;;5090202;28;20115;-71
2021/11/14 03:49:48;;;;;;;15.80;12.32;;;;;;;;;;5090100;28;20054;-73
2021/11/14 03:52:14;;;;;;;16.83;13.23;;;;;;;;;;5080931;28;20506;-73
2021/11/14 03:54:39;;;;;;;14.77;12.30;;;;;;;;;;5071420;28;20025;-73
2021/11/14 03:57:05;;;;;;;17.23;12.88;;;;;;;;;;5094279;28;20019;-71
2021/11/14 03:59:31;;;;;;;17.00;12.80;;;;;;;;;;5080816;28;20033;-71
2021/11/14 04:01:57;;;;;;;18.83;14.10;;;;;;;;;;5090073;28;20024;-71
2021/11/14 04:04:22;;;;;;;16.70;13.27;;;;;;;;;;5094883;28;20789;-68
2021/11/14 04:06:47;;;;;;;15.25;12.73;;;;;;;;;;5094238;28;20387;-71
2021/11/14 04:09:12;;;;;;;14.13;11.68;;;;;;;;;;5093497;28;21050;-72
2021/11/14 04:11:38;;;;;;;16.08;12.68;;;;;;;;;;5087526;28;20029;-72
2021/11/14 04:14:03;;;;;;;17.58;12.80;;;;;;;;;;5085331;28;20056;-71
2021/11/14 04:16:28;;;;;;;19.00;12.90;;;;;;;;;;5093891;28;20475;-69
2021/11/14 04:18:54;;;;;;;14.70;11.85;;;;;;;;;;5095606;28;20043;-70
2021/11/14 04:21:19;;;;;;;17.90;12.63;;;;;;;;;;5092507;28;20022;-71
2021/11/14 04:23:44;;;;;;;16.08;12.73;;;;;;;;;;5112428;27;20107;-71
2021/11/14 04:26:09;;;;;;;14.70;12.02;;;;;;;;;;5075573;28;20441;-71
2021/11/14 04:28:35;;;;;;;14.65;11.88;;;;;;;;;;5086202;28;20079;-70
2021/11/14 04:31:01;;;;;;;14.35;11.77;;;;;;;;;;5083181;28;20028;-70
2021/11/14 04:33:26;;;;;;;15.70;11.40;;;;;;;;;;5094678;28;20476;-70
2021/11/14 04:35:51;;;;;;;16.25;12.07;;;;;;;;;;5093139;28;20498;-70
2021/11/14 04:38:17;;;;;;;14.88;11.75;;;;;;;;;;5094248;28;20357;-71
2021/11/14 04:40:45;;;;;;;15.35;12.32;;;;;;;;;;5089132;28;20486;-71
2021/11/14 04:43:11;;;;;;;14.98;12.60;;;;;;;;;;5087885;28;20016;-70
2021/11/14 04:45:37;;;;;;;15.23;11.98;;;;;;;;;;5094743;28;20024;-70
2021/11/14 04:48:03;;;;;;;17.02;12.95;;;;;;;;;;5091157;28;20357;-70
2021/11/14 04:50:29;;;;;;;18.55;14.27;;;;;;;;;;5094939;28;20020;-70
2021/11/14 04:52:54;;;;;;;18.50;14.40;;;;;;;;;;5081621;28;20027;-70
2021/11/14 04:55:20;;;;;;;19.50;14.75;;;;;;;;;;5073155;28;20021;-70
2021/11/14 04:57:50;;;;;;;18.92;14.48;;;;;;;;;;5077343;28;20051;-71
2021/11/14 05:00:16;;;;;;;17.42;13.63;;;;;;;;;;5090237;28;20024;-70
2021/11/14 05:02:42;;;;;;;17.13;13.38;;;;;;;;;;5089450;28;20023;-70
2021/11/14 05:05:07;;;;;;;17.40;13.57;;;;;;;;;;5089321;28;20426;-70
2021/11/14 05:07:32;;;;;;;19.67;12.98;;;;;;;;;;5092536;28;20097;-71
2021/11/14 05:09:58;;;;;;;19.65;13.52;;;;;;;;;;5091280;28;20024;-71
2021/11/14 05:12:23;;;;;;;16.92;13.70;;;;;;;;;;5092801;28;20024;-71
2021/11/14 05:14:49;;;;;;;17.13;12.80;;;;;;;;;;5077148;28;20063;-71
2021/11/14 05:17:14;;;;;;;16.88;12.82;;;;;;;;;;5075070;28;20507;-71
2021/11/14 05:19:39;;;;;;;15.25;12.18;;;;;;;;;;5094023;28;20008;-71
2021/11/14 05:22:04;;;;;;;15.35;12.60;;;;;;;;;;5067704;28;20020;-71
2021/11/14 05:24:29;;;;;;;16.08;12.10;;;;;;;;;;5091506;28;20032;-71
2021/11/14 05:26:56;;;;;;;15.77;12.15;;;;;;;;;;5091983;28;20106;-71
2021/11/14 05:29:21;;;;;;;15.45;11.85;;;;;;;;;;5094280;28;20036;-72
2021/11/14 05:31:46;;;;;;;15.63;12.23;;;;;;;;;;5093530;28;20028;-70
2021/11/14 05:34:11;;;;;;;14.88;12.30;;;;;;;;;;5088469;28;20056;-71
2021/11/14 05:36:37;;;;;;;16.30;12.63;;;;;;;;;;5091117;28;20020;-71
2021/11/14 05:39:02;;;;;;;17.10;12.00;;;;;;;;;;5090755;28;20020;-71
2021/11/14 05:41:27;;;;;;;15.02;12.23;;;;;;;;;;5092310;28;20061;-70
2021/11/14 05:43:52;;;;;;;16.35;12.35;;;;;;;;;;5092597;28;20035;-71
2021/11/14 05:46:18;;;;;;;15.60;12.00;;;;;;;;;;5091100;28;20032;-71
2021/11/14 05:48:43;;;;;;;16.25;11.55;;;;;;;;;;5090219;28;20530;-71
2021/11/14 05:51:08;;;;;;;15.07;12.25;;;;;;;;;;5092572;28;20035;-71
2021/11/14 05:53:33;;;;;;;16.13;12.48;;;;;;;;;;5087536;28;20043;-69
2021/11/14 05:55:59;;;;;;;16.50;12.32;;;;;;;;;;5088268;28;20024;-70
2021/11/14 05:58:33;;;;;;;13.65;11.63;;;;;;;;;;5074600;28;20025;-70
2021/11/14 06:01:09;;;;;;;15.07;11.15;;;;;;;;;;5083807;28;20024;-70
2021/11/14 06:03:56;;;;;;;15.45;11.48;;;;;;;;;;5087896;28;20035;-71
2021/11/14 06:06:22;;;;;;;14.48;11.05;;;;;;;;;;5072380;28;20020;-70
2021/11/14 06:08:47;;;;;;;13.38;11.18;;;;;;;;;;5088122;28;20027;-71
2021/11/14 06:11:12;;;;;;;14.18;11.48;;;;;;;;;;5093526;28;20141;-71
2021/11/14 06:13:38;;;;;;;13.65;11.27;;;;;;;;;;5089278;28;20069;-71
2021/11/14 06:16:04;;;;;;;15.30;12.13;;;;;;;;;;5092178;28;20016;-70
2021/11/14 06:18:29;;;;;;;14.20;11.88;;;;;;;;;;5090060;28;20107;-71
2021/11/14 06:20:55;;;;;;;14.57;11.90;;;;;;;;;;5092563;28;20111;-71
2021/11/14 06:23:20;;;;;;;14.07;10.95;;;;;;;;;;5075561;28;20028;-71
2021/11/14 06:25:45;;;;;;;15.18;11.30;;;;;;;;;;5074297;28;20059;-71
2021/11/14 06:28:10;;;;;;;15.32;11.75;;;;;;;;;;5075686;28;20404;-71
2021/11/14 06:30:37;;;;;;;15.10;12.10;;;;;;;;;;5074998;28;20024;-71
2021/11/14 06:33:02;;;;;;;13.88;11.25;;;;;;;;;;5088102;28;20084;-71
2021/11/14 06:35:28;;;;;;;14.80;12.02;;;;;;;;;;5092764;28;20102;-70
2021/11/14 06:37:53;;;;;;;12.82;10.07;;;;;;;;;;5093108;28;20059;-70
2021/11/14 06:40:18;;;;;;;12.75;10.68;;;;;;;;;;5090087;28;20093;-70
2021/11/14 06:42:43;;;;;;;13.85;11.50;;;;;;;;;;5091509;28;20530;-69
2021/11/14 06:45:09;;;;;;;14.40;11.20;;;;;;;;;;5090311;28;20028;-69
2021/11/14 06:47:35;;;;;;;14.23;10.88;;;;;;;;;;5086504;28;20112;-70
2021/11/14 06:50:00;;;;;;;13.27;11.07;;;;;;;;;;5083713;28;20081;-69
2021/11/14 06:52:26;;;;;;;12.75;10.90;;;;;;;;;;5084573;28;20024;-69
2021/11/14 06:54:51;;;;;;;12.95;10.20;;;;;;;;;;5087529;28;20020;-69
2021/11/14 06:57:18;;;;;;;14.23;11.10;;;;;;;;;;5092256;28;20538;-70
2021/11/14 06:59:43;;;;;;;13.02;10.50;;;;;;;;;;5091103;28;20024;-71
2021/11/14 07:02:09;;;;;;;13.15;10.10;;;;;;;;;;5088948;28;20031;-71
2021/11/14 07:04:35;;;;;;;11.65;9.93;;;;;;;;;;5087840;28;20582;-71
2021/11/14 07:07:01;;;;;;;12.68;10.10;;;;;;;;;;5090480;28;20028;-69
2021/11/14 07:09:26;;;;;;;11.52;9.68;;;;;;;;;;5090330;28;20027;-71
2021/11/14 07:11:53;;;;;;;12.48;9.57;;;;;;;;;;5087057;28;20028;-71
2021/11/14 07:14:19;;;;;;;11.80;9.07;;;;;;;;;;5090442;28;20032;-70
2021/11/14 07:16:45;;;;;;;12.88;10.25;;;;;;;;;;5088908;28;20115;-70
2021/11/14 07:19:10;;;;;;;12.95;10.15;;;;;;;;;;5074562;28;20027;-72
2021/11/14 07:21:35;;;;;;;11.23;10.02;;;;;;;;;;5073309;28;20034;-71
2021/11/14 07:24:00;;;;;;;13.02;10.13;;;;;;;;;;5088228;28;20016;-72
2021/11/14 07:26:26;;;;;;;11.63;9.95;;;;;;;;;;5087045;28;20074;-72
2021/11/14 07:28:51;;;;;;;11.48;10.20;;;;;;;;;;5090841;28;20052;-72
2021/11/14 07:31:16;;;;;;;11.48;9.93;;;;;;;;;;5082318;28;20053;-71
2021/11/14 07:33:42;;;;;;;11.15;9.75;;;;;;;;;;5091257;28;20023;-71
2021/11/14 07:36:07;;;;;;;12.20;9.73;;;;;;;;;;5072421;28;20105;-71
2021/11/14 07:38:32;;;;;;;13.98;11.50;;;;;;;;;;5082459;28;20024;-71
2021/11/14 07:40:57;;;;;;;16.20;13.57;;;;;;;;;;5094306;28;20110;-71
2021/11/14 07:43:23;;;;;;;13.88;12.07;;;;;;;;;;5079066;28;20465;-71
2021/11/14 07:45:48;;;;;;;11.20;9.55;;;;;;;;;;5090071;28;20043;-71
2021/11/14 07:48:13;;;;;;;10.07;8.98;;;;;;;;;;5074940;28;20047;-71
2021/11/14 07:50:39;;;;;;;11.00;9.43;;;;;;;;;;5089141;28;20438;-71
2021/11/14 07:53:04;;;;;;;10.27;9.18;;;;;;;;;;5078458;28;20388;-71
2021/11/14 07:55:30;;;;;;;11.63;9.65;;;;;;;;;;5097020;28;20023;-71
2021/11/14 07:57:55;;;;;;;11.40;9.23;;;;;;;;;;5087029;28;20032;-71
2021/11/14 08:00:21;;;;;;;10.38;8.85;;;;;;;;;;5084649;28;20506;-71
2021/11/14 08:02:47;;;;;;;9.88;8.85;;;;;;;;;;5089689;28;20028;-72
2021/11/14 08:05:13;;;;;;;11.60;9.32;;;;;;;;;;5074509;28;20024;-71
2021/11/14 08:07:38;;;;;;;10.25;9.13;;;;;;;;;;5072687;28;20373;-72
2021/11/14 08:10:05;;;;;;;12.25;9.80;;;;;;;;;;5086758;28;20029;-71
2021/11/14 08:12:30;;;;;;;10.60;9.15;;;;;;;;;;5088332;28;20488;-71
2021/11/14 08:14:55;;;;;;;12.32;10.63;;;;;;;;;;5086397;28;20036;-72
2021/11/14 08:17:20;;;;;;;14.30;10.65;;;;;;;;;;5094005;28;20066;-71
2021/11/14 08:19:46;;;;;;;12.57;9.40;;;;;;;;;;5111508;28;20035;-71
2021/11/14 08:22:11;;;;;;;10.90;9.50;;;;;;;;;;5092619;28;20043;-71
2021/11/14 08:24:36;;;;;;;10.93;9.27;;;;;;;;;;5074910;28;20024;-70
2021/11/14 08:27:02;;;;;;;11.50;9.98;;;;;;;;;;5071936;28;20097;-71
2021/11/14 08:29:27;;;;;;;13.75;9.80;;;;;;;;;;5083189;28;20062;-71
2021/11/14 08:31:52;;;;;;;11.95;10.20;;;;;;;;;;5073118;28;20032;-71
2021/11/14 08:34:17;;;;;;;13.18;10.45;;;;;;;;;;5091240;28;20032;-71
2021/11/14 08:36:43;;;;;;;13.10;10.00;;;;;;;;;;5087009;28;20031;-72
2021/11/14 08:39:08;;;;;;;12.10;9.70;;;;;;;;;;5086764;28;20028;-71
2021/11/14 08:41:33;;;;;;;11.45;10.00;;;;;;;;;;5072380;28;20435;-71
2021/11/14 08:43:58;;;;;;;10.32;8.68;;;;;;;;;;5094503;28;20028;-72
2021/11/14 08:46:24;;;;;;;12.20;9.77;;;;;;;;;;5093509;28;20028;-72
2021/11/14 08:48:49;;;;;;;11.40;9.77;;;;;;;;;;5099688;28;20476;-71
2021/11/14 08:51:14;;;;;;;13.98;11.48;;;;;;;;;;5081523;28;20073;-71
2021/11/14 08:53:39;;;;;;;11.45;10.20;;;;;;;;;;5085821;28;20028;-71
2021/11/14 08:56:05;;;;;;;13.77;10.00;;;;;;;;;;5075115;28;20028;-71
2021/11/14 08:58:31;;;;;;;12.60;11.27;;;;;;;;;;5076564;28;20023;-71
2021/11/14 09:00:57;;;;;;;12.55;10.02;;;;;;;;;;5084541;28;20039;-70
2021/11/14 09:03:22;;;;;;;12.60;9.90;;;;;;;;;;5086624;28;20428;-70
2021/11/14 09:05:47;;;;;;;9.70;8.60;;;;;;;;;;5087322;28;20494;-72
2021/11/14 09:08:13;;;;;;;10.13;8.40;;;;;;;;;;5091440;28;20032;-71
2021/11/14 09:10:43;;;;;;;10.50;8.60;;;;;;;;;;5093113;28;20020;-70
2021/11/14 09:13:09;;;;;;;8.43;7.55;;;;;;;;;;5089947;28;20032;-71
2021/11/14 09:15:34;;;;;;;12.02;9.70;;;;;;;;;;5082816;28;20460;-72
2021/11/14 09:18:00;;;;;;;9.50;8.50;;;;;;;;;;5091883;28;20032;-71
2021/11/14 09:20:26;;;;;;;12.05;9.98;;;;;;;;;;5111534;27;20481;-71
2021/11/14 09:22:51;;;;;;;9.93;7.57;;;;;;;;;;5077145;28;20020;-71
2021/11/14 09:25:17;;;;;;;8.77;7.60;;;;;;;;;;5091826;28;20361;-71
2021/11/14 09:27:42;;;;;;;8.60;7.70;;;;;;;;;;5090864;28;20044;-71
2021/11/14 09:30:10;;;;;;;9.55;8.15;;;;;;;;;;5077858;28;20042;-71
2021/11/14 09:32:37;;;;;;;8.07;7.25;;;;;;;;;;5075744;28;20243;-73
2021/11/14 09:35:03;;;;;;;8.80;7.50;;;;;;;;;;5098375;28;20106;-70
2021/11/14 09:37:28;;;;;;;8.52;6.50;;;;;;;;;;5088190;28;20052;-74
2021/11/14 09:39:53;;;;;;;7.43;6.72;;;;;;;;;;5080700;28;20074;-77
2021/11/14 09:42:19;;;;;;;7.47;6.78;;;;;;;;;;5085170;28;20485;-70
2021/11/14 09:44:44;;;;;;;6.60;6.00;;;;;;;;;;5088422;28;20486;-70
2021/11/14 09:47:10;;;;;;;6.68;6.07;;;;;;;;;;5084948;28;20016;-70
2021/11/14 09:49:35;;;;;;;6.32;5.72;;;;;;;;;;5089229;28;20028;-70
2021/11/14 09:52:04;;;;;;;5.20;4.70;;;;;;;;;;5086843;28;20031;-71
2021/11/14 09:54:31;;;;;;;4.13;3.72;;;;;;;;;;5085036;28;20430;-70
2021/11/14 09:56:57;;;;;;;4.10;3.70;;;;;;;;;;5076476;28;20028;-71
2021/11/14 09:59:22;;;;;;;4.28;3.45;;;;;;;;;;5089345;28;20065;-69
2021/11/14 10:01:51;;;;;;;2.30;2.10;;;;;;;;;;5078951;28;20089;-69
2021/11/14 10:04:17;;;;;;;2.65;2.42;;;;;;;;;;5091453;28;20031;-70
2021/11/14 10:06:42;;;;;;;4.72;2.90;;;;;;;;;;5096868;28;20020;-69
2021/11/14 10:09:07;;;;;;;2.90;2.70;;;;;;;;;;5091506;28;20028;-69
2021/11/14 10:11:37;;;;;;;3.22;2.92;;;;;;;;;;5072225;28;20031;-69
2021/11/14 10:14:03;;;;;;;3.67;3.38;;;;;;;;;;5092331;28;20028;-69
2021/11/14 10:16:29;;;;;;;3.33;2.97;;;;;;;;;;5091331;28;20024;-69
2021/11/14 10:19:13;;;;;;;3.58;3.28;;;;;;;;;;5102288;28;20045;-70
2021/11/14 10:21:39;;;;;;;3.40;3.10;;;;;;;;;;5084310;28;20409;-68
2021/11/14 10:24:06;;;;;;;3.08;2.88;;;;;;;;;;5078249;28;20024;-70
2021/11/14 10:26:31;;;;;;;2.90;2.70;;;;;;;;;;5072936;28;20501;-69
2021/11/14 10:29:01;;;;;;;4.00;3.42;;;;;;;;;;5086487;28;20053;-69
2021/11/14 10:31:26;;;;;;;3.33;3.10;;;;;;;;;;5078105;28;20021;-70
2021/11/14 10:33:52;;;;;;;3.20;2.90;;;;;;;;;;5088420;28;20028;-70
2021/11/14 10:36:18;;;;;;;3.40;3.08;;;;;;;;;;5071441;28;20044;-70
2021/11/14 10:38:44;;;;;;;3.72;3.38;;;;;;;;;;5082572;28;20103;-70
2021/11/14 10:41:10;;;;;;;4.60;4.20;;;;;;;;;;5072366;28;20099;-69
2021/11/14 10:43:38;;;;;;;5.28;4.78;;;;;;;;;;5093327;28;20441;-70
2021/11/14 10:46:04;;;;;;;5.00;4.60;;;;;;;;;;5074265;28;20089;-69
2021/11/14 10:48:31;;;;;;;5.88;5.32;;;;;;;;;;5092117;28;20028;-71
2021/11/14 10:50:57;;;;;;;5.43;4.93;;;;;;;;;;5082047;28;20036;-70
2021/11/14 10:53:24;;;;;;;6.07;5.57;;;;;;;;;;5082872;28;20119;-70
2021/11/14 10:55:54;;;;;;;6.10;5.60;;;;;;;;;;5095408;28;20024;-70
2021/11/14 10:58:25;;;;;;;5.40;4.93;;;;;;;;;;5077939;28;20135;-69
2021/11/14 11:00:52;;;;;;;4.90;4.47;;;;;;;;;;5088418;28;20092;-71
2021/11/14 11:03:18;;;;;;;5.60;5.10;;;;;;;;;;5082069;28;20071;-69
2021/11/14 11:05:43;;;;;;;6.07;5.10;;;;;;;;;;5091167;28;20059;-69
2021/11/14 11:08:10;;;;;;;5.85;5.35;;;;;;;;;;5087772;28;20028;-69
2021/11/14 11:10:37;;;;;;;6.05;5.50;;;;;;;;;;5091689;28;20028;-71
2021/11/14 11:13:04;;;;;;;5.85;5.28;;;;;;;;;;5084582;28;20032;-69
2021/11/14 11:15:42;;;;;;;6.45;5.95;;;;;;;;;;5082369;28;20072;-70
2021/11/14 11:18:08;;;;;;;6.45;5.85;;;;;;;;;;5094600;28;20146;-71
2021/11/14 11:20:33;;;;;;;6.82;6.22;;;;;;;;;;5096183;28;20099;-71
2021/11/14 11:23:03;;;;;;;6.88;6.03;;;;;;;;;;5078002;28;20161;-71
2021/11/14 11:25:41;;;;;;;7.20;6.50;;;;;;;;;;5076304;28;20077;-69
2021/11/14 11:28:29;;;;;;;6.03;5.53;;;;;;;;;;5090081;28;20488;-70
2021/11/14 11:30:54;;;;;;;6.07;5.57;;;;;;;;;;5075845;28;20032;-70
2021/11/14 11:33:21;;;;;;;5.93;5.43;;;;;;;;;;5080384;28;20028;-71
2021/11/14 11:35:46;;;;;;;5.88;5.38;;;;;;;;;;5087728;28;20122;-70
2021/11/14 11:38:12;;;;;;;6.40;5.90;;;;;;;;;;5092230;28;20606;-70
2021/11/14 11:40:37;;;;;;;6.25;5.75;;;;;;;;;;5090250;28;20028;-69
2021/11/14 11:43:02;;;;;;;6.82;6.28;;;;;;;;;;5098463;28;20028;-70
2021/11/14 11:45:29;;;;;;;7.63;6.93;;;;;;;;;;5083599;28;20024;-69
2021/11/14 11:47:56;;;;;;;7.38;6.78;;;;;;;;;;5089961;28;20035;-69
2021/11/14 11:50:27;;;;;;;7.85;7.22;;;;;;;;;;5102981;28;20020;-69
2021/11/14 11:52:52;;;;;;;7.35;6.65;;;;;;;;;;5074370;28;20027;-69
2021/11/14 11:55:18;;;;;;;6.70;6.20;;;;;;;;;;5080304;28;20024;-70
2021/11/14 11:57:44;;;;;;;6.90;6.30;;;;;;;;;;5075180;28;20078;-70
2021/11/14 12:00:09;;;;;;;7.05;6.40;;;;;;;;;;5094656;28;20468;-72
2021/11/14 12:02:35;;;;;;;6.47;5.90;;;;;;;;;;5087180;28;20434;-71
2021/11/14 12:05:05;;;;;;;6.13;5.63;;;;;;;;;;5077068;28;20480;-71
2021/11/14 12:07:33;;;;;;;7.43;6.72;;;;;;;;;;5083702;28;20495;-71
2021/11/14 12:10:01;;;;;;;8.35;7.55;;;;;;;;;;5086521;28;20016;-71
2021/11/14 12:12:29;;;;;;;7.35;6.65;;;;;;;;;;5074061;28;20345;-71
2021/11/14 12:15:15;;;;;;;7.40;6.75;;;;;;;;;;5079583;28;20016;-71
2021/11/14 12:17:48;;;;;;;7.55;6.85;;;;;;;;;;5089763;28;20066;-71
2021/11/14 12:20:14;;;;;;;8.98;7.38;;;;;;;;;;5094918;28;20019;-69
2021/11/14 12:22:40;;;;;;;8.18;7.47;;;;;;;;;;5071081;28;20095;-70
2021/11/14 12:25:05;;;;;;;10.20;9.20;;;;;;;;;;5076138;28;20025;-69
2021/11/14 12:27:32;;;;;;;8.80;8.00;;;;;;;;;;5089116;28;20523;-69
2021/11/14 12:30:00;;;;;;;9.50;8.50;;;;;;;;;;5084386;28;20039;-70
2021/11/14 12:32:38;;;;;;;8.63;7.88;;;;;;;;;;5078607;28;20020;-70
2021/11/14 12:35:04;;;;;;;8.25;7.45;;;;;;;;;;5079176;28;20025;-71
2021/11/14 12:37:30;;;;;;;9.38;8.48;;;;;;;;;;5110076;27;20054;-72
2021/11/14 12:40:08;;;;;;;9.38;8.45;;;;;;;;;;5081918;28;20055;-71
2021/11/14 12:42:33;;;;;;;8.68;7.85;;;;;;;;;;5089112;28;20012;-72
2021/11/14 12:44:59;;;;;;;9.52;8.52;;;;;;;;;;5091202;28;20131;-71
2021/11/14 12:47:25;;;;;;;7.90;7.25;;;;;;;;;;5092203;28;20055;-71
2021/11/14 12:49:52;;;;;;;8.48;7.50;;;;;;;;;;5096423;28;20128;-72
2021/11/14 12:52:28;;;;;;;8.15;7.38;;;;;;;;;;5081802;28;20056;-71
2021/11/14 12:54:54;;;;;;;8.02;7.32;;;;;;;;;;5079775;28;20024;-72
2021/11/14 12:57:20;;;;;;;8.60;7.70;;;;;;;;;;5082413;28;20036;-72
2021/11/14 12:59:46;;;;;;;8.38;7.57;;;;;;;;;;5092776;28;20034;-71
2021/11/14 13:02:30;;;;;;;9.50;8.60;;;;;;;;;;5073247;28;20019;-69
2021/11/14 13:05:05;;;;;;;9.98;8.98;;;;;;;;;;5087131;28;20047;-69
2021/11/14 13:07:31;;;;;;;9.07;8.05;;;;;;;;;;5081145;28;20028;-71
2021/11/14 13:09:57;;;;;;;9.13;8.05;;;;;;;;;;5078075;28;20116;-71
2021/11/14 13:12:23;;;;;;;9.43;7.60;;;;;;;;;;5085833;28;20703;-74
2021/11/14 13:14:50;;;;;;;9.27;8.38;;;;;;;;;;5090692;28;20101;-75
2021/11/14 13:17:17;;;;;;;9.02;7.93;;;;;;;;;;5090744;28;20197;-71
2021/11/14 13:19:43;;;;;;;10.40;9.32;;;;;;;;;;5081250;28;20090;-75
2021/11/14 13:22:08;;;;;;;9.32;8.43;;;;;;;;;;5074751;28;20024;-75
2021/11/14 13:24:34;;;;;;;9.30;8.25;;;;;;;;;;5078919;28;20025;-69
2021/11/14 13:27:05;;;;;;;9.07;8.18;;;;;;;;;;5086948;28;20044;-70
2021/11/14 13:29:42;;;;;;;10.13;9.18;;;;;;;;;;5098567;28;20447;-84
2021/11/14 13:32:09;;;;;;;10.35;9.35;;;;;;;;;;5080541;28;20023;-69
2021/11/14 13:34:36;;;;;;;9.93;8.93;;;;;;;;;;5078816;28;20024;-75
2021/11/14 13:37:10;;;;;;;11.20;10.10;;;;;;;;;;5073758;28;20024;-81
2021/11/14 13:39:45;;;;;;;10.18;9.18;;;;;;;;;;5080138;28;20515;-78
2021/11/14 13:42:16;;;;;;;11.50;10.32;;;;;;;;;;5076177;28;20056;-77
2021/11/14 13:44:47;;;;;;;12.27;11.00;;;;;;;;;;5079051;28;20081;-77
2021/11/14 13:47:16;;;;;;;13.10;11.80;;;;;;;;;;5086971;28;20055;-77
2021/11/14 13:49:43;;;;;;;14.57;12.98;;;;;;;;;;5072204;28;20024;-77
2021/11/14 13:52:10;;;;;;;13.15;11.85;;;;;;;;;;5074431;28;20032;-76
2021/11/14 13:54:53;;;;;;;14.77;13.25;;;;;;;;;;5076048;28;20516;-76
2021/11/14 13:57:20;;;;;;;17.17;14.77;;;;;;;;;;5092891;28;20085;-77
2021/11/14 13:59:46;;;;;;;17.35;14.95;;;;;;;;;;5081555;28;20542;-76
2021/11/14 14:02:11;;;;;;;17.33;14.90;;;;;;;;;;5073126;28;20044;-78
2021/11/14 14:04:55;;;;;;;20.00;16.40;;;;;;;;;;5097563;28;20028;-76
2021/11/14 14:07:21;;;;;;;20.25;16.20;;;;;;;;;;5084514;28;20016;-76
2021/11/14 14:09:53;;;;;;;19.02;16.30;;;;;;;;;;5079695;28;20036;-76
2021/11/14 14:12:18;;;;;;;20.50;16.23;;;;;;;;;;5081467;28;20027;-76
2021/11/14 14:14:45;;;;;;;20.80;16.98;;;;;;;;;;5071092;28;20024;-76
2021/11/14 14:17:10;;;;;;;23.02;17.73;;;;;;;;;;5081205;28;20016;-76
2021/11/14 14:19:36;;;;;;;23.92;17.60;;;;;;;;;;5089275;28;20100;-76
2021/11/14 14:22:02;;;;;;;23.77;18.75;;;;;;;;;;5071615;28;20476;-76